sensor_id;sensor_type;location;lat;lon;timestamp;temperature;humidity
16863;DHT22;52193;48.216;-1.698;2023-04-12T00:00:07;13.90;99.90
16863;DHT22;52193;48.216;-1.698;2023-04-12T00:02:37;13.80;99.90
16863;DHT22;52193;48.216;-1.698;2023-04-12T00:05:04;13.80;99.90
16863;DHT22;52193;48.216;-1.698;2023-04-12T00:07:34;13.70;99.90
16863;DHT22;52193;48.216;-1.698;2023-04-12T00:10:05;13.70;99.90
16863;DHT22;52193;48.216;-1.698;2023-04-12T00:12:32;13.70;99.90
16863;DHT22;52193;48.216;-1.698;2023-04-12T00:14:59;13.70;99.90
16863;DHT22;52193;48.216;-1.698;2023-04-12T00:17:26;13.70;99.90
16863;DHT22;52193;48.216;-1.698;2023-04-12T00:19:53;13.70;99.90
16863;DHT22;52193;48.216;-1.698;2023-04-12T00:22:20;13.70;99.90
16863;DHT22;52193;48.216;-1.698;2023-04-12T00:24:47;13.70;99.90
16863;DHT22;52193;48.216;-1.698;2023-04-12T00:27:15;13.80;99.90
16863;DHT22;52193;48.216;-1.698;2023-04-12T00:29:42;13.70;99.90
16863;DHT22;52193;48.216;-1.698;2023-04-12T00:32:09;13.70;99.90
16863;DHT22;52193;48.216;-1.698;2023-04-12T00:34:36;13.70;99.90
16863;DHT22;52193;48.216;-1.698;2023-04-12T00:37:03;13.70;99.90
16863;DHT22;52193;48.216;-1.698;2023-04-12T00:39:30;13.60;99.90
16863;DHT22;52193;48.216;-1.698;2023-04-12T00:42:02;13.70;99.90
16863;DHT22;52193;48.216;-1.698;2023-04-12T00:44:31;13.60;99.90
16863;DHT22;52193;48.216;-1.698;2023-04-12T00:46:58;13.60;99.90
16863;DHT22;52193;48.216;-1.698;2023-04-12T00:49:27;13.60;99.90
16863;DHT22;52193;48.216;-1.698;2023-04-12T00:51:57;13.70;99.90
16863;DHT22;52193;48.216;-1.698;2023-04-12T00:54:29;13.60;99.90
16863;DHT22;52193;48.216;-1.698;2023-04-12T00:56:56;13.60;99.90
16863;DHT22;52193;48.216;-1.698;2023-04-12T00:59:23;13.50;99.90
16863;DHT22;52193;48.216;-1.698;2023-04-12T01:01:52;13.50;99.90
16863;DHT22;52193;48.216;-1.698;2023-04-12T01:04:19;13.50;99.90
16863;DHT22;52193;48.216;-1.698;2023-04-12T01:06:59;13.50;99.90
16863;DHT22;52193;48.216;-1.698;2023-04-12T01:09:33;13.60;99.90
16863;DHT22;52193;48.216;-1.698;2023-04-12T01:12:09;13.60;99.90
16863;DHT22;52193;48.216;-1.698;2023-04-12T01:14:51;13.60;99.90
16863;DHT22;52193;48.216;-1.698;2023-04-12T01:17:27;13.50;99.90
16863;DHT22;52193;48.216;-1.698;2023-04-12T01:19:57;13.50;99.90
16863;DHT22;52193;48.216;-1.698;2023-04-12T01:23:00;13.50;99.90
16863;DHT22;52193;48.216;-1.698;2023-04-12T01:25:38;13.50;99.90
16863;DHT22;52193;48.216;-1.698;2023-04-12T01:28:09;13.50;99.90
16863;DHT22;52193;48.216;-1.698;2023-04-12T01:30:37;13.50;99.90
16863;DHT22;52193;48.216;-1.698;2023-04-12T01:33:06;13.50;99.90
16863;DHT22;52193;48.216;-1.698;2023-04-12T01:35:33;13.50;99.90
16863;DHT22;52193;48.216;-1.698;2023-04-12T01:38:00;13.50;99.90
16863;DHT22;52193;48.216;-1.698;2023-04-12T01:40:28;13.60;99.90
16863;DHT22;52193;48.216;-1.698;2023-04-12T01:43:07;13.60;99.90
16863;DHT22;52193;48.216;-1.698;2023-04-12T01:45:34;13.60;99.90
16863;DHT22;52193;48.216;-1.698;2023-04-12T01:48:01;13.60;99.90
16863;DHT22;52193;48.216;-1.698;2023-04-12T01:50:35;13.50;99.90
16863;DHT22;52193;48.216;-1.698;2023-04-12T01:53:09;13.50;99.90
16863;DHT22;52193;48.216;-1.698;2023-04-12T01:55:38;13.50;99.90
16863;DHT22;52193;48.216;-1.698;2023-04-12T01:58:08;13.40;99.90
16863;DHT22;52193;48.216;-1.698;2023-04-12T02:00:37;13.30;99.90
16863;DHT22;52193;48.216;-1.698;2023-04-12T02:03:04;13.30;99.90
16863;DHT22;52193;48.216;-1.698;2023-04-12T02:05:32;13.40;99.90
16863;DHT22;52193;48.216;-1.698;2023-04-12T02:08:01;13.30;99.90
16863;DHT22;52193;48.216;-1.698;2023-04-12T02:10:28;13.40;99.90
16863;DHT22;52193;48.216;-1.698;2023-04-12T02:12:57;13.40;99.90
16863;DHT22;52193;48.216;-1.698;2023-04-12T02:15:26;13.30;99.90
16863;DHT22;52193;48.216;-1.698;2023-04-12T02:17:54;13.20;99.90
16863;DHT22;52193;48.216;-1.698;2023-04-12T02:20:21;13.20;99.90
16863;DHT22;52193;48.216;-1.698;2023-04-12T02:22:49;13.20;99.90
16863;DHT22;52193;48.216;-1.698;2023-04-12T02:25:16;13.30;99.90
16863;DHT22;52193;48.216;-1.698;2023-04-12T02:27:43;13.30;99.90
16863;DHT22;52193;48.216;-1.698;2023-04-12T02:30:11;13.30;99.90
16863;DHT22;52193;48.216;-1.698;2023-04-12T02:32:39;13.30;99.90
16863;DHT22;52193;48.216;-1.698;2023-04-12T02:35:10;13.30;99.90
16863;DHT22;52193;48.216;-1.698;2023-04-12T02:37:37;13.30;99.90
16863;DHT22;52193;48.216;-1.698;2023-04-12T02:40:05;13.20;99.90
16863;DHT22;52193;48.216;-1.698;2023-04-12T02:42:34;13.30;99.90
16863;DHT22;52193;48.216;-1.698;2023-04-12T02:45:01;13.30;99.90
16863;DHT22;52193;48.216;-1.698;2023-04-12T02:47:29;13.10;99.90
16863;DHT22;52193;48.216;-1.698;2023-04-12T02:49:57;13.20;99.90
16863;DHT22;52193;48.216;-1.698;2023-04-12T02:52:24;13.10;99.90
16863;DHT22;52193;48.216;-1.698;2023-04-12T02:54:53;13.00;99.90
16863;DHT22;52193;48.216;-1.698;2023-04-12T02:57:20;12.90;99.90
16863;DHT22;52193;48.216;-1.698;2023-04-12T02:59:49;12.90;99.90
16863;DHT22;52193;48.216;-1.698;2023-04-12T03:02:17;12.90;99.90
16863;DHT22;52193;48.216;-1.698;2023-04-12T03:04:44;12.80;99.90
16863;DHT22;52193;48.216;-1.698;2023-04-12T03:07:17;12.70;99.90
16863;DHT22;52193;48.216;-1.698;2023-04-12T03:09:44;12.70;99.90
16863;DHT22;52193;48.216;-1.698;2023-04-12T03:12:12;12.70;99.90
16863;DHT22;52193;48.216;-1.698;2023-04-12T03:14:39;12.70;99.90
16863;DHT22;52193;48.216;-1.698;2023-04-12T03:17:06;12.70;99.90
16863;DHT22;52193;48.216;-1.698;2023-04-12T03:19:33;12.60;99.90
16863;DHT22;52193;48.216;-1.698;2023-04-12T03:22:01;12.50;99.90
16863;DHT22;52193;48.216;-1.698;2023-04-12T03:24:30;12.50;99.90
16863;DHT22;52193;48.216;-1.698;2023-04-12T03:26:59;12.60;99.90
16863;DHT22;52193;48.216;-1.698;2023-04-12T03:29:27;12.60;99.90
16863;DHT22;52193;48.216;-1.698;2023-04-12T03:31:54;12.50;99.90
16863;DHT22;52193;48.216;-1.698;2023-04-12T03:34:22;12.50;99.90
16863;DHT22;52193;48.216;-1.698;2023-04-12T03:36:49;12.50;99.90
16863;DHT22;52193;48.216;-1.698;2023-04-12T03:39:16;12.50;99.90
16863;DHT22;52193;48.216;-1.698;2023-04-12T03:41:45;12.50;99.90
16863;DHT22;52193;48.216;-1.698;2023-04-12T03:44:12;12.60;99.90
16863;DHT22;52193;48.216;-1.698;2023-04-12T03:46:39;12.60;99.90
16863;DHT22;52193;48.216;-1.698;2023-04-12T03:49:06;12.60;99.90
16863;DHT22;52193;48.216;-1.698;2023-04-12T03:51:33;12.60;99.90
16863;DHT22;52193;48.216;-1.698;2023-04-12T03:54:00;12.70;99.90
16863;DHT22;52193;48.216;-1.698;2023-04-12T03:56:28;12.70;99.90
16863;DHT22;52193;48.216;-1.698;2023-04-12T03:58:57;12.70;99.90
16863;DHT22;52193;48.216;-1.698;2023-04-12T04:01:24;12.70;99.90
16863;DHT22;52193;48.216;-1.698;2023-04-12T04:03:50;12.70;99.90
16863;DHT22;52193;48.216;-1.698;2023-04-12T04:06:18;12.70;99.90
16863;DHT22;52193;48.216;-1.698;2023-04-12T04:08:45;12.80;99.90
16863;DHT22;52193;48.216;-1.698;2023-04-12T04:11:12;12.90;99.90
16863;DHT22;52193;48.216;-1.698;2023-04-12T04:13:39;12.80;99.90
16863;DHT22;52193;48.216;-1.698;2023-04-12T04:16:08;12.80;99.90
16863;DHT22;52193;48.216;-1.698;2023-04-12T04:18:35;12.70;99.90
16863;DHT22;52193;48.216;-1.698;2023-04-12T04:21:03;12.60;99.90
16863;DHT22;52193;48.216;-1.698;2023-04-12T04:23:32;12.60;99.90
16863;DHT22;52193;48.216;-1.698;2023-04-12T04:26:03;12.60;99.90
16863;DHT22;52193;48.216;-1.698;2023-04-12T04:28:30;12.60;99.90
16863;DHT22;52193;48.216;-1.698;2023-04-12T04:30:59;12.50;99.90
16863;DHT22;52193;48.216;-1.698;2023-04-12T04:33:31;12.50;99.90
16863;DHT22;52193;48.216;-1.698;2023-04-12T04:35:58;12.50;99.90
16863;DHT22;52193;48.216;-1.698;2023-04-12T04:38:26;12.40;99.90
16863;DHT22;52193;48.216;-1.698;2023-04-12T04:40:53;12.40;99.90
16863;DHT22;52193;48.216;-1.698;2023-04-12T04:43:20;12.40;99.90
16863;DHT22;52193;48.216;-1.698;2023-04-12T04:45:47;12.40;99.90
16863;DHT22;52193;48.216;-1.698;2023-04-12T04:48:19;12.30;99.90
16863;DHT22;52193;48.216;-1.698;2023-04-12T04:50:47;12.40;99.90
16863;DHT22;52193;48.216;-1.698;2023-04-12T04:53:17;12.40;99.90
16863;DHT22;52193;48.216;-1.698;2023-04-12T04:55:44;12.40;99.90
16863;DHT22;52193;48.216;-1.698;2023-04-12T04:58:12;12.40;99.90
16863;DHT22;52193;48.216;-1.698;2023-04-12T05:00:39;12.50;99.90
16863;DHT22;52193;48.216;-1.698;2023-04-12T05:03:09;12.40;99.90
16863;DHT22;52193;48.216;-1.698;2023-04-12T05:05:36;12.40;99.90
16863;DHT22;52193;48.216;-1.698;2023-04-12T05:08:05;12.40;99.90
16863;DHT22;52193;48.216;-1.698;2023-04-12T05:10:32;12.30;99.90
16863;DHT22;52193;48.216;-1.698;2023-04-12T05:12:58;12.30;99.90
16863;DHT22;52193;48.216;-1.698;2023-04-12T05:15:25;12.30;99.90
16863;DHT22;52193;48.216;-1.698;2023-04-12T05:17:52;12.30;99.90
16863;DHT22;52193;48.216;-1.698;2023-04-12T05:20:19;12.20;99.90
16863;DHT22;52193;48.216;-1.698;2023-04-12T05:22:46;12.20;99.90
16863;DHT22;52193;48.216;-1.698;2023-04-12T05:25:14;12.20;99.90
16863;DHT22;52193;48.216;-1.698;2023-04-12T05:27:42;12.20;99.90
16863;DHT22;52193;48.216;-1.698;2023-04-12T05:30:10;12.10;99.90
16863;DHT22;52193;48.216;-1.698;2023-04-12T05:32:37;12.10;99.90
16863;DHT22;52193;48.216;-1.698;2023-04-12T05:35:04;12.10;99.90
16863;DHT22;52193;48.216;-1.698;2023-04-12T05:37:31;12.10;99.90
16863;DHT22;52193;48.216;-1.698;2023-04-12T05:39:58;12.00;99.90
16863;DHT22;52193;48.216;-1.698;2023-04-12T05:42:26;12.00;99.90
16863;DHT22;52193;48.216;-1.698;2023-04-12T05:44:53;11.90;99.90
16863;DHT22;52193;48.216;-1.698;2023-04-12T05:47:21;11.90;99.90
16863;DHT22;52193;48.216;-1.698;2023-04-12T05:49:48;11.90;99.90
16863;DHT22;52193;48.216;-1.698;2023-04-12T05:52:15;11.90;99.90
16863;DHT22;52193;48.216;-1.698;2023-04-12T05:54:41;11.90;99.90
16863;DHT22;52193;48.216;-1.698;2023-04-12T05:57:08;11.80;99.90
16863;DHT22;52193;48.216;-1.698;2023-04-12T05:59:38;11.80;99.90
16863;DHT22;52193;48.216;-1.698;2023-04-12T06:02:06;11.80;99.90
16863;DHT22;52193;48.216;-1.698;2023-04-12T06:04:33;11.80;99.90
16863;DHT22;52193;48.216;-1.698;2023-04-12T06:07:00;11.70;99.90
16863;DHT22;52193;48.216;-1.698;2023-04-12T06:09:27;11.70;99.90
16863;DHT22;52193;48.216;-1.698;2023-04-12T06:11:54;11.70;99.90
16863;DHT22;52193;48.216;-1.698;2023-04-12T06:14:22;11.70;99.90
16863;DHT22;52193;48.216;-1.698;2023-04-12T06:16:50;11.70;99.90
16863;DHT22;52193;48.216;-1.698;2023-04-12T06:19:17;11.80;99.90
16863;DHT22;52193;48.216;-1.698;2023-04-12T06:21:44;11.70;99.90
16863;DHT22;52193;48.216;-1.698;2023-04-12T06:24:11;11.70;99.90
16863;DHT22;52193;48.216;-1.698;2023-04-12T06:26:38;11.70;99.90
16863;DHT22;52193;48.216;-1.698;2023-04-12T06:29:07;11.70;99.90
16863;DHT22;52193;48.216;-1.698;2023-04-12T06:31:34;11.80;99.90
16863;DHT22;52193;48.216;-1.698;2023-04-12T06:34:03;11.80;99.90
16863;DHT22;52193;48.216;-1.698;2023-04-12T06:36:30;11.80;99.90
16863;DHT22;52193;48.216;-1.698;2023-04-12T06:38:57;11.70;99.90
16863;DHT22;52193;48.216;-1.698;2023-04-12T06:41:24;11.70;99.90
16863;DHT22;52193;48.216;-1.698;2023-04-12T06:43:51;11.70;99.90
16863;DHT22;52193;48.216;-1.698;2023-04-12T06:46:24;11.60;99.90
16863;DHT22;52193;48.216;-1.698;2023-04-12T06:48:51;11.60;99.90
16863;DHT22;52193;48.216;-1.698;2023-04-12T06:51:20;11.70;99.90
16863;DHT22;52193;48.216;-1.698;2023-04-12T06:53:47;11.60;99.90
16863;DHT22;52193;48.216;-1.698;2023-04-12T06:56:13;11.60;99.90
16863;DHT22;52193;48.216;-1.698;2023-04-12T06:58:40;11.60;99.90
16863;DHT22;52193;48.216;-1.698;2023-04-12T07:01:08;11.60;99.90
16863;DHT22;52193;48.216;-1.698;2023-04-12T07:03:36;11.70;99.90
16863;DHT22;52193;48.216;-1.698;2023-04-12T07:06:03;11.60;99.90
16863;DHT22;52193;48.216;-1.698;2023-04-12T07:08:34;11.60;99.90
16863;DHT22;52193;48.216;-1.698;2023-04-12T07:11:01;11.60;99.90
16863;DHT22;52193;48.216;-1.698;2023-04-12T07:13:28;11.70;99.90
16863;DHT22;52193;48.216;-1.698;2023-04-12T07:15:56;11.80;99.90
16863;DHT22;52193;48.216;-1.698;2023-04-12T07:18:25;11.90;99.90
16863;DHT22;52193;48.216;-1.698;2023-04-12T07:20:54;11.90;99.90
16863;DHT22;52193;48.216;-1.698;2023-04-12T07:23:21;11.90;99.90
16863;DHT22;52193;48.216;-1.698;2023-04-12T07:25:49;12.00;99.90
16863;DHT22;52193;48.216;-1.698;2023-04-12T07:28:17;12.00;99.90
16863;DHT22;52193;48.216;-1.698;2023-04-12T07:30:44;12.00;99.90
16863;DHT22;52193;48.216;-1.698;2023-04-12T07:33:11;12.00;99.90
16863;DHT22;52193;48.216;-1.698;2023-04-12T07:35:38;12.10;99.90
16863;DHT22;52193;48.216;-1.698;2023-04-12T07:38:05;12.10;99.90
16863;DHT22;52193;48.216;-1.698;2023-04-12T07:40:32;12.10;99.90
16863;DHT22;52193;48.216;-1.698;2023-04-12T07:43:00;12.20;99.90
16863;DHT22;52193;48.216;-1.698;2023-04-12T07:45:27;12.20;99.90
16863;DHT22;52193;48.216;-1.698;2023-04-12T07:47:54;12.20;99.90
16863;DHT22;52193;48.216;-1.698;2023-04-12T07:50:21;12.20;99.90
16863;DHT22;52193;48.216;-1.698;2023-04-12T07:52:48;12.20;99.90
16863;DHT22;52193;48.216;-1.698;2023-04-12T07:55:15;12.30;99.90
16863;DHT22;52193;48.216;-1.698;2023-04-12T07:57:41;12.30;99.90
16863;DHT22;52193;48.216;-1.698;2023-04-12T08:00:11;12.30;99.90
16863;DHT22;52193;48.216;-1.698;2023-04-12T08:02:38;12.30;99.90
16863;DHT22;52193;48.216;-1.698;2023-04-12T08:05:06;12.30;99.90
16863;DHT22;52193;48.216;-1.698;2023-04-12T08:07:33;12.40;99.90
16863;DHT22;52193;48.216;-1.698;2023-04-12T08:10:00;12.40;99.90
16863;DHT22;52193;48.216;-1.698;2023-04-12T08:12:27;12.40;99.90
16863;DHT22;52193;48.216;-1.698;2023-04-12T08:14:54;12.50;99.90
16863;DHT22;52193;48.216;-1.698;2023-04-12T08:17:22;12.60;99.90
16863;DHT22;52193;48.216;-1.698;2023-04-12T08:19:52;12.60;99.90
16863;DHT22;52193;48.216;-1.698;2023-04-12T08:22:18;12.60;99.90
16863;DHT22;52193;48.216;-1.698;2023-04-12T08:24:45;12.50;99.90
16863;DHT22;52193;48.216;-1.698;2023-04-12T08:27:12;12.50;99.90
16863;DHT22;52193;48.216;-1.698;2023-04-12T08:29:41;12.60;99.90
16863;DHT22;52193;48.216;-1.698;2023-04-12T08:32:07;12.70;99.90
16863;DHT22;52193;48.216;-1.698;2023-04-12T08:34:38;12.70;99.90
16863;DHT22;52193;48.216;-1.698;2023-04-12T08:37:05;12.80;99.90
16863;DHT22;52193;48.216;-1.698;2023-04-12T08:39:32;12.90;99.90
16863;DHT22;52193;48.216;-1.698;2023-04-12T08:41:59;12.90;99.90
16863;DHT22;52193;48.216;-1.698;2023-04-12T08:44:33;12.90;99.90
16863;DHT22;52193;48.216;-1.698;2023-04-12T08:47:01;12.80;99.90
16863;DHT22;52193;48.216;-1.698;2023-04-12T08:49:29;12.80;99.90
16863;DHT22;52193;48.216;-1.698;2023-04-12T08:51:59;12.80;99.90
16863;DHT22;52193;48.216;-1.698;2023-04-12T08:54:26;12.80;99.90
16863;DHT22;52193;48.216;-1.698;2023-04-12T08:56:55;12.80;99.90
16863;DHT22;52193;48.216;-1.698;2023-04-12T08:59:24;12.80;99.90
16863;DHT22;52193;48.216;-1.698;2023-04-12T09:01:54;12.80;99.90
16863;DHT22;52193;48.216;-1.698;2023-04-12T09:04:21;12.80;99.90
16863;DHT22;52193;48.216;-1.698;2023-04-12T09:06:48;12.90;99.90
16863;DHT22;52193;48.216;-1.698;2023-04-12T09:09:16;12.90;99.90
16863;DHT22;52193;48.216;-1.698;2023-04-12T09:11:43;12.90;99.90
16863;DHT22;52193;48.216;-1.698;2023-04-12T09:14:21;13.10;99.90
16863;DHT22;52193;48.216;-1.698;2023-04-12T09:16:49;13.30;99.90
16863;DHT22;52193;48.216;-1.698;2023-04-12T09:19:22;13.20;99.90
16863;DHT22;52193;48.216;-1.698;2023-04-12T09:21:56;13.20;99.90
16863;DHT22;52193;48.216;-1.698;2023-04-12T09:24:24;13.40;99.90
16863;DHT22;52193;48.216;-1.698;2023-04-12T09:27:01;13.50;99.90
16863;DHT22;52193;48.216;-1.698;2023-04-12T09:29:29;13.40;99.90
16863;DHT22;52193;48.216;-1.698;2023-04-12T09:31:59;13.40;99.90
16863;DHT22;52193;48.216;-1.698;2023-04-12T09:34:26;13.40;99.90
16863;DHT22;52193;48.216;-1.698;2023-04-12T09:36:54;13.60;99.90
16863;DHT22;52193;48.216;-1.698;2023-04-12T09:39:31;13.80;99.90
16863;DHT22;52193;48.216;-1.698;2023-04-12T09:42:05;13.90;99.90
16863;DHT22;52193;48.216;-1.698;2023-04-12T09:44:32;13.90;99.90
16863;DHT22;52193;48.216;-1.698;2023-04-12T09:47:00;14.00;99.90
16863;DHT22;52193;48.216;-1.698;2023-04-12T09:49:36;14.10;99.90
16863;DHT22;52193;48.216;-1.698;2023-04-12T09:52:05;14.00;99.90
16863;DHT22;52193;48.216;-1.698;2023-04-12T09:54:37;14.00;99.90
16863;DHT22;52193;48.216;-1.698;2023-04-12T09:57:06;14.20;99.90
16863;DHT22;52193;48.216;-1.698;2023-04-12T09:59:36;14.30;99.90
16863;DHT22;52193;48.216;-1.698;2023-04-12T10:02:06;14.40;99.90
16863;DHT22;52193;48.216;-1.698;2023-04-12T10:04:38;14.40;99.90
16863;DHT22;52193;48.216;-1.698;2023-04-12T10:07:06;14.20;99.90
16863;DHT22;52193;48.216;-1.698;2023-04-12T10:09:37;14.10;99.90
16863;DHT22;52193;48.216;-1.698;2023-04-12T10:12:07;14.10;99.90
16863;DHT22;52193;48.216;-1.698;2023-04-12T10:14:34;14.10;99.90
16863;DHT22;52193;48.216;-1.698;2023-04-12T10:17:02;14.10;99.90
16863;DHT22;52193;48.216;-1.698;2023-04-12T10:19:31;14.00;99.90
16863;DHT22;52193;48.216;-1.698;2023-04-12T10:21:59;14.10;99.90
16863;DHT22;52193;48.216;-1.698;2023-04-12T10:24:27;14.20;99.90
16863;DHT22;52193;48.216;-1.698;2023-04-12T10:26:57;14.10;99.90
16863;DHT22;52193;48.216;-1.698;2023-04-12T10:29:28;14.20;99.90
16863;DHT22;52193;48.216;-1.698;2023-04-12T10:31:57;14.20;99.90
16863;DHT22;52193;48.216;-1.698;2023-04-12T10:34:28;14.40;99.90
16863;DHT22;52193;48.216;-1.698;2023-04-12T10:36:57;14.50;99.40
16863;DHT22;52193;48.216;-1.698;2023-04-12T10:39:36;14.60;98.80
16863;DHT22;52193;48.216;-1.698;2023-04-12T10:42:21;14.70;98.60
16863;DHT22;52193;48.216;-1.698;2023-04-12T10:44:49;14.90;98.30
16863;DHT22;52193;48.216;-1.698;2023-04-12T10:47:28;14.90;97.60
16863;DHT22;52193;48.216;-1.698;2023-04-12T10:50:23;14.80;96.60
16863;DHT22;52193;48.216;-1.698;2023-04-12T10:53:24;14.90;96.70
16863;DHT22;52193;48.216;-1.698;2023-04-12T10:55:51;14.90;96.10
16863;DHT22;52193;48.216;-1.698;2023-04-12T10:58:59;14.90;96.20
16863;DHT22;52193;48.216;-1.698;2023-04-12T11:01:27;15.10;95.90
16863;DHT22;52193;48.216;-1.698;2023-04-12T11:04:15;15.20;95.10
16863;DHT22;52193;48.216;-1.698;2023-04-12T11:06:46;15.20;94.20
16863;DHT22;52193;48.216;-1.698;2023-04-12T11:09:21;15.00;95.20
16863;DHT22;52193;48.216;-1.698;2023-04-12T11:11:50;14.90;95.90
16863;DHT22;52193;48.216;-1.698;2023-04-12T11:14:25;14.80;96.20
16863;DHT22;52193;48.216;-1.698;2023-04-12T11:17:21;14.60;96.80
16863;DHT22;52193;48.216;-1.698;2023-04-12T11:19:51;14.50;97.00
16863;DHT22;52193;48.216;-1.698;2023-04-12T11:22:20;14.30;97.40
16863;DHT22;52193;48.216;-1.698;2023-04-12T11:24:49;14.20;97.90
16863;DHT22;52193;48.216;-1.698;2023-04-12T11:27:17;14.00;99.00
16863;DHT22;52193;48.216;-1.698;2023-04-12T11:29:47;13.90;99.90
16863;DHT22;52193;48.216;-1.698;2023-04-12T11:32:15;13.90;99.90
16863;DHT22;52193;48.216;-1.698;2023-04-12T11:34:43;13.80;99.90
16863;DHT22;52193;48.216;-1.698;2023-04-12T11:37:11;13.80;99.90
16863;DHT22;52193;48.216;-1.698;2023-04-12T11:39:39;13.90;99.90
16863;DHT22;52193;48.216;-1.698;2023-04-12T11:42:11;14.00;99.90
16863;DHT22;52193;48.216;-1.698;2023-04-12T11:44:41;14.00;99.90
16863;DHT22;52193;48.216;-1.698;2023-04-12T11:47:17;14.10;99.50
16863;DHT22;52193;48.216;-1.698;2023-04-12T11:49:46;14.20;99.30
16863;DHT22;52193;48.216;-1.698;2023-04-12T11:52:14;14.60;99.50
16863;DHT22;52193;48.216;-1.698;2023-04-12T11:54:45;14.90;98.90
16863;DHT22;52193;48.216;-1.698;2023-04-12T11:57:14;15.20;98.30
16863;DHT22;52193;48.216;-1.698;2023-04-12T11:59:45;15.60;98.50
16863;DHT22;52193;48.216;-1.698;2023-04-12T12:02:13;15.90;97.10
16863;DHT22;52193;48.216;-1.698;2023-04-12T12:04:45;16.20;95.90
16863;DHT22;52193;48.216;-1.698;2023-04-12T12:07:13;16.70;95.70
16863;DHT22;52193;48.216;-1.698;2023-04-12T12:09:41;17.10;94.80
16863;DHT22;52193;48.216;-1.698;2023-04-12T12:12:09;17.40;93.60
16863;DHT22;52193;48.216;-1.698;2023-04-12T12:14:37;17.70;93.10
16863;DHT22;52193;48.216;-1.698;2023-04-12T12:17:09;17.70;92.00
16863;DHT22;52193;48.216;-1.698;2023-04-12T12:19:38;17.80;91.70
16863;DHT22;52193;48.216;-1.698;2023-04-12T12:22:16;17.90;91.40
16863;DHT22;52193;48.216;-1.698;2023-04-12T12:24:45;17.90;91.00
16863;DHT22;52193;48.216;-1.698;2023-04-12T12:27:13;17.80;90.70
16863;DHT22;52193;48.216;-1.698;2023-04-12T12:29:43;18.00;90.80
16863;DHT22;52193;48.216;-1.698;2023-04-12T12:32:11;18.30;90.30
16863;DHT22;52193;48.216;-1.698;2023-04-12T12:34:40;18.20;88.40
16863;DHT22;52193;48.216;-1.698;2023-04-12T12:37:08;18.20;86.30
16863;DHT22;52193;48.216;-1.698;2023-04-12T12:39:37;18.00;85.20
16863;DHT22;52193;48.216;-1.698;2023-04-12T12:42:04;18.20;85.50
16863;DHT22;52193;48.216;-1.698;2023-04-12T12:44:31;18.60;84.40
16863;DHT22;52193;48.216;-1.698;2023-04-12T12:47:00;18.90;83.50
16863;DHT22;52193;48.216;-1.698;2023-04-12T12:49:27;18.70;81.30
16863;DHT22;52193;48.216;-1.698;2023-04-12T12:51:55;18.40;80.90
16863;DHT22;52193;48.216;-1.698;2023-04-12T12:54:22;18.00;82.40
16863;DHT22;52193;48.216;-1.698;2023-04-12T12:56:50;17.70;88.60
16863;DHT22;52193;48.216;-1.698;2023-04-12T12:59:17;17.80;91.00
16863;DHT22;52193;48.216;-1.698;2023-04-12T13:01:44;18.20;91.10
16863;DHT22;52193;48.216;-1.698;2023-04-12T13:04:11;18.90;90.60
16863;DHT22;52193;48.216;-1.698;2023-04-12T13:06:37;19.60;89.80
16863;DHT22;52193;48.216;-1.698;2023-04-12T13:09:05;19.90;89.30
16863;DHT22;52193;48.216;-1.698;2023-04-12T13:11:32;20.10;85.60
16863;DHT22;52193;48.216;-1.698;2023-04-12T13:14:00;21.00;85.60
16863;DHT22;52193;48.216;-1.698;2023-04-12T13:16:27;21.30;82.50
16863;DHT22;52193;48.216;-1.698;2023-04-12T13:18:54;21.60;81.50
16863;DHT22;52193;48.216;-1.698;2023-04-12T13:21:21;21.90;80.40
16863;DHT22;52193;48.216;-1.698;2023-04-12T13:23:48;21.90;79.60
16863;DHT22;52193;48.216;-1.698;2023-04-12T13:26:15;21.50;78.90
16863;DHT22;52193;48.216;-1.698;2023-04-12T13:28:42;21.10;79.10
16863;DHT22;52193;48.216;-1.698;2023-04-12T13:31:10;21.00;78.60
16863;DHT22;52193;48.216;-1.698;2023-04-12T13:33:37;21.20;78.50
16863;DHT22;52193;48.216;-1.698;2023-04-12T13:36:04;21.50;77.40
16863;DHT22;52193;48.216;-1.698;2023-04-12T13:38:31;21.50;75.90
16863;DHT22;52193;48.216;-1.698;2023-04-12T13:40:58;21.90;75.20
16863;DHT22;52193;48.216;-1.698;2023-04-12T13:43:25;22.20;72.10
16863;DHT22;52193;48.216;-1.698;2023-04-12T13:45:52;22.50;71.90
16863;DHT22;52193;48.216;-1.698;2023-04-12T13:48:20;23.00;71.90
16863;DHT22;52193;48.216;-1.698;2023-04-12T13:50:47;23.30;69.80
16863;DHT22;52193;48.216;-1.698;2023-04-12T13:53:15;23.40;69.10
16863;DHT22;52193;48.216;-1.698;2023-04-12T13:55:42;24.10;68.80
16863;DHT22;52193;48.216;-1.698;2023-04-12T13:58:10;24.20;68.00
16863;DHT22;52193;48.216;-1.698;2023-04-12T14:00:37;24.50;68.60
16863;DHT22;52193;48.216;-1.698;2023-04-12T14:03:04;24.10;67.40
16863;DHT22;52193;48.216;-1.698;2023-04-12T14:05:34;23.30;68.10
16863;DHT22;52193;48.216;-1.698;2023-04-12T14:08:01;22.50;67.50
16863;DHT22;52193;48.216;-1.698;2023-04-12T14:10:28;21.60;68.80
16863;DHT22;52193;48.216;-1.698;2023-04-12T14:12:54;21.10;70.30
16863;DHT22;52193;48.216;-1.698;2023-04-12T14:15:21;20.40;74.30
16863;DHT22;52193;48.216;-1.698;2023-04-12T14:17:48;20.60;78.80
16863;DHT22;52193;48.216;-1.698;2023-04-12T14:20:15;21.30;80.20
16863;DHT22;52193;48.216;-1.698;2023-04-12T14:22:44;22.10;79.30
16863;DHT22;52193;48.216;-1.698;2023-04-12T14:25:10;22.70;78.00
16863;DHT22;52193;48.216;-1.698;2023-04-12T14:27:37;23.70;76.50
16863;DHT22;52193;48.216;-1.698;2023-04-12T14:30:05;23.80;72.20
16863;DHT22;52193;48.216;-1.698;2023-04-12T14:32:33;23.90;70.40
16863;DHT22;52193;48.216;-1.698;2023-04-12T14:34:59;23.60;67.30
16863;DHT22;52193;48.216;-1.698;2023-04-12T14:37:27;23.60;67.20
16863;DHT22;52193;48.216;-1.698;2023-04-12T14:39:55;23.30;66.60
16863;DHT22;52193;48.216;-1.698;2023-04-12T14:42:22;23.60;64.90
16863;DHT22;52193;48.216;-1.698;2023-04-12T14:44:49;23.60;64.80
16863;DHT22;52193;48.216;-1.698;2023-04-12T14:47:16;23.30;64.60
16863;DHT22;52193;48.216;-1.698;2023-04-12T14:49:43;22.90;63.70
16863;DHT22;52193;48.216;-1.698;2023-04-12T14:52:10;22.30;63.50
16863;DHT22;52193;48.216;-1.698;2023-04-12T14:54:37;21.60;64.60
16863;DHT22;52193;48.216;-1.698;2023-04-12T14:57:05;20.50;70.80
16863;DHT22;52193;48.216;-1.698;2023-04-12T14:59:32;19.70;72.80
16863;DHT22;52193;48.216;-1.698;2023-04-12T15:01:59;18.90;72.40
16863;DHT22;52193;48.216;-1.698;2023-04-12T15:04:26;18.40;72.60
16863;DHT22;52193;48.216;-1.698;2023-04-12T15:06:53;18.10;72.80
16863;DHT22;52193;48.216;-1.698;2023-04-12T15:09:20;18.50;73.30
16863;DHT22;52193;48.216;-1.698;2023-04-12T15:11:48;18.90;72.30
16863;DHT22;52193;48.216;-1.698;2023-04-12T15:14:21;19.80;71.50
16863;DHT22;52193;48.216;-1.698;2023-04-12T15:16:48;20.50;70.00
16863;DHT22;52193;48.216;-1.698;2023-04-12T15:19:15;21.50;69.40
16863;DHT22;52193;48.216;-1.698;2023-04-12T15:21:44;22.30;66.90
16863;DHT22;52193;48.216;-1.698;2023-04-12T15:24:12;22.90;65.40